createdAt,value
2023-03-10T00:02:20.274Z,100.00
2023-03-10T00:04:51.002Z,100.00
2023-03-10T00:07:17.948Z,100.00
2023-03-10T00:09:45.465Z,100.00
2023-03-10T00:12:12.767Z,100.00
2023-03-10T00:14:39.972Z,100.00
2023-03-10T00:17:07.424Z,100.00
2023-03-10T00:19:34.280Z,100.00
2023-03-10T00:22:02.727Z,100.00
2023-03-10T00:24:29.941Z,100.00
2023-03-10T00:26:56.926Z,100.00
2023-03-10T00:29:24.113Z,100.00
2023-03-10T00:31:50.945Z,100.00
2023-03-10T00:34:17.910Z,100.00
2023-03-10T00:36:46.034Z,100.00
2023-03-10T00:39:12.839Z,100.00
2023-03-10T00:41:39.760Z,100.00
2023-03-10T00:44:09.579Z,100.00
2023-03-10T00:46:38.944Z,100.00
2023-03-10T00:49:06.226Z,100.00
2023-03-10T00:51:33.245Z,100.00
2023-03-10T00:54:01.203Z,100.00
2023-03-10T00:56:28.722Z,100.00
2023-03-10T00:58:57.657Z,100.00
2023-03-10T01:01:26.464Z,100.00
2023-03-10T01:03:54.629Z,100.00
2023-03-10T01:06:22.200Z,100.00
2023-03-10T01:08:49.130Z,100.00
2023-03-10T01:11:20.305Z,100.00
2023-03-10T01:13:47.260Z,100.00
2023-03-10T01:16:14.297Z,100.00
2023-03-10T01:18:41.066Z,100.00
2023-03-10T01:21:08.056Z,100.00
2023-03-10T01:23:34.888Z,100.00
2023-03-10T01:26:01.873Z,100.00
2023-03-10T01:28:28.823Z,100.00
2023-03-10T01:30:55.885Z,100.00
2023-03-10T01:33:23.008Z,100.00
2023-03-10T01:35:49.973Z,100.00
2023-03-10T01:38:16.849Z,100.00
2023-03-10T01:40:48.133Z,100.00
2023-03-10T01:43:26.511Z,100.00
2023-03-10T01:45:53.324Z,100.00
2023-03-10T01:48:22.157Z,100.00
2023-03-10T01:50:51.756Z,100.00
2023-03-10T01:53:19.516Z,100.00
2023-03-10T01:55:52.692Z,100.00
2023-03-10T01:58:21.078Z,100.00
2023-03-10T02:00:48.736Z,100.00
2023-03-10T02:03:18.943Z,100.00
2023-03-10T02:05:46.905Z,100.00
2023-03-10T02:08:15.304Z,100.00
2023-03-10T02:10:41.998Z,100.00
2023-03-10T02:13:08.965Z,100.00
2023-03-10T02:15:36.554Z,100.00
2023-03-10T02:18:03.971Z,100.00
2023-03-10T02:20:30.906Z,100.00
2023-03-10T02:22:57.888Z,100.00
2023-03-10T02:25:27.644Z,100.00
2023-03-10T02:27:54.816Z,100.00
2023-03-10T02:30:24.971Z,100.00
2023-03-10T02:32:56.524Z,100.00
2023-03-10T02:35:24.119Z,100.00
2023-03-10T02:37:52.086Z,100.00
2023-03-10T02:40:22.029Z,100.00
2023-03-10T02:42:48.854Z,100.00
2023-03-10T02:45:15.874Z,100.00
2023-03-10T02:47:42.793Z,100.00
2023-03-10T02:50:10.906Z,100.00
2023-03-10T02:52:44.817Z,100.00
2023-03-10T02:55:18.686Z,100.00
2023-03-10T02:57:45.891Z,100.00
2023-03-10T03:00:13.368Z,100.00
2023-03-10T03:02:40.145Z,100.00
2023-03-10T03:05:07.580Z,100.00
2023-03-10T03:07:34.546Z,100.00
2023-03-10T03:10:01.326Z,100.00
2023-03-10T03:12:28.082Z,100.00
2023-03-10T03:14:54.978Z,100.00
2023-03-10T03:17:21.929Z,100.00
2023-03-10T03:19:48.755Z,100.00
2023-03-10T03:22:15.680Z,100.00
2023-03-10T03:24:42.543Z,100.00
2023-03-10T03:27:09.697Z,100.00
2023-03-10T03:29:36.762Z,100.00
2023-03-10T03:32:03.691Z,100.00
2023-03-10T03:34:30.809Z,100.00
2023-03-10T03:36:57.949Z,100.00
2023-03-10T03:39:24.928Z,100.00
2023-03-10T03:41:57.427Z,100.00
2023-03-10T03:44:24.340Z,100.00
2023-03-10T03:46:51.184Z,100.00
2023-03-10T03:49:17.958Z,100.00
2023-03-10T03:51:44.970Z,100.00
2023-03-10T03:54:11.724Z,100.00
2023-03-10T03:56:38.799Z,100.00
2023-03-10T03:59:06.003Z,100.00
2023-03-10T04:01:32.902Z,100.00
2023-03-10T04:03:59.959Z,100.00
2023-03-10T04:06:26.928Z,100.00
2023-03-10T04:08:53.739Z,100.00
2023-03-10T04:11:20.872Z,100.00
2023-03-10T04:13:47.716Z,100.00
2023-03-10T04:16:14.728Z,100.00
2023-03-10T04:18:41.891Z,100.00
2023-03-10T04:21:08.938Z,100.00
2023-03-10T04:23:36.026Z,100.00
2023-03-10T04:26:06.940Z,100.00
2023-03-10T04:28:33.801Z,100.00
2023-03-10T04:31:00.768Z,100.00
2023-03-10T04:33:27.660Z,100.00
2023-03-10T04:35:54.826Z,100.00
2023-03-10T04:38:23.733Z,100.00
2023-03-10T04:40:56.346Z,100.00
2023-03-10T04:43:23.343Z,100.00
2023-03-10T04:45:50.386Z,100.00
2023-03-10T04:48:17.364Z,100.00
2023-03-10T04:50:44.119Z,100.00
2023-03-10T04:53:11.171Z,100.00
2023-03-10T04:55:38.588Z,100.00
2023-03-10T04:58:05.364Z,100.00
2023-03-10T05:00:32.702Z,100.00
2023-03-10T05:02:59.787Z,100.00
2023-03-10T05:05:26.669Z,100.00
2023-03-10T05:07:53.782Z,100.00
2023-03-10T05:10:20.839Z,100.00
2023-03-10T05:12:47.972Z,100.00
2023-03-10T05:15:14.883Z,100.00
2023-03-10T05:17:41.997Z,100.00
2023-03-10T05:20:11.502Z,100.00
2023-03-10T05:22:40.055Z,100.00
2023-03-10T05:25:07.490Z,100.00
2023-03-10T05:27:35.122Z,100.00
2023-03-10T05:30:02.309Z,100.00
2023-03-10T05:32:29.250Z,100.00
2023-03-10T05:34:55.963Z,100.00
2023-03-10T05:37:23.058Z,100.00
2023-03-10T05:39:50.075Z,100.00
2023-03-10T05:42:17.062Z,100.00
2023-03-10T05:44:44.281Z,100.00
2023-03-10T05:47:11.341Z,100.00
2023-03-10T05:49:38.841Z,100.00
2023-03-10T05:52:06.714Z,100.00
2023-03-10T05:54:34.311Z,100.00
2023-03-10T05:57:01.465Z,100.00
2023-03-10T05:59:28.204Z,100.00
2023-03-10T06:01:54.881Z,100.00
2023-03-10T06:04:21.822Z,100.00
2023-03-10T06:06:48.490Z,100.00
2023-03-10T06:09:15.287Z,100.00
2023-03-10T06:11:41.935Z,100.00
2023-03-10T06:14:08.549Z,100.00
2023-03-10T06:16:35.323Z,100.00
2023-03-10T06:19:01.987Z,100.00
2023-03-10T06:21:29.660Z,100.00
2023-03-10T06:23:56.433Z,100.00
2023-03-10T06:26:23.075Z,100.00
2023-03-10T06:28:49.735Z,100.00
2023-03-10T06:31:17.931Z,100.00
2023-03-10T06:33:45.180Z,100.00
2023-03-10T06:36:12.898Z,100.00
2023-03-10T06:38:39.923Z,100.00
2023-03-10T06:41:06.917Z,100.00
2023-03-10T06:43:34.200Z,100.00
2023-03-10T06:46:03.051Z,99.89
2023-03-10T06:48:29.813Z,98.23
2023-03-10T06:50:56.444Z,96.96
2023-03-10T06:53:23.126Z,94.98
2023-03-10T06:55:58.931Z,93.13
2023-03-10T06:58:25.663Z,90.53
2023-03-10T07:00:52.375Z,88.96
2023-03-10T07:03:19.508Z,88.91
2023-03-10T07:05:46.620Z,87.35
2023-03-10T07:08:13.868Z,85.23
2023-03-10T07:10:40.709Z,84.54
2023-03-10T07:13:08.399Z,83.45
2023-03-10T07:15:35.056Z,82.32
2023-03-10T07:18:01.754Z,79.19
2023-03-10T07:20:28.375Z,71.51
2023-03-10T07:22:55.051Z,66.06
2023-03-10T07:25:21.680Z,64.21
2023-03-10T07:27:48.336Z,64.26
2023-03-10T07:30:15.068Z,61.78
2023-03-10T07:32:41.892Z,64.21
2023-03-10T07:35:09.348Z,65.15
2023-03-10T07:37:39.904Z,69.14
2023-03-10T07:40:07.632Z,69.81
2023-03-10T07:42:34.228Z,63.53
2023-03-10T07:45:00.927Z,64.28
2023-03-10T07:47:27.624Z,66.16
2023-03-10T07:49:54.338Z,66.51
2023-03-10T07:52:21.040Z,67.55
2023-03-10T07:54:47.687Z,71.18
2023-03-10T07:57:15.607Z,69.89
2023-03-10T07:59:42.689Z,69.56
2023-03-10T08:02:12.185Z,62.56
2023-03-10T08:04:38.957Z,64.99
2023-03-10T08:07:05.743Z,67.02
2023-03-10T08:09:32.788Z,67.57
2023-03-10T08:11:59.639Z,68.86
2023-03-10T08:14:28.135Z,63.79
2023-03-10T08:16:56.812Z,59.04
2023-03-10T08:19:23.915Z,52.58
2023-03-10T08:21:50.619Z,49.10
2023-03-10T08:24:17.385Z,49.59
2023-03-10T08:26:44.011Z,48.62
2023-03-10T08:29:10.678Z,46.41
2023-03-10T08:31:37.562Z,47.70
2023-03-10T08:34:04.198Z,49.93
2023-03-10T08:36:31.130Z,46.34
2023-03-10T08:39:00.624Z,48.05
2023-03-10T08:41:31.904Z,46.81
2023-03-10T08:43:58.892Z,45.97
2023-03-10T08:46:27.004Z,45.49
2023-03-10T08:48:54.004Z,45.04
2023-03-10T08:51:20.853Z,48.27
2023-03-10T08:53:48.885Z,44.62
2023-03-10T08:56:17.009Z,45.32
2023-03-10T08:58:43.958Z,44.67
2023-03-10T09:01:11.687Z,46.46
2023-03-10T09:03:39.912Z,44.46
2023-03-10T09:06:06.868Z,43.79
2023-03-10T09:08:34.014Z,46.36
2023-03-10T09:11:01.127Z,44.67
2023-03-10T09:13:27.870Z,44.82
2023-03-10T09:15:54.570Z,44.18
2023-03-10T09:18:21.423Z,43.15
2023-03-10T09:20:48.078Z,42.89
2023-03-10T09:23:15.199Z,44.30
2023-03-10T09:25:42.154Z,48.60
2023-03-10T09:28:09.795Z,48.09
2023-03-10T09:30:37.526Z,48.53
2023-03-10T09:33:04.976Z,49.50
2023-03-10T09:35:31.763Z,50.11
2023-03-10T09:37:58.432Z,52.06
2023-03-10T09:40:25.300Z,53.30
2023-03-10T09:42:57.308Z,54.15
2023-03-10T09:45:26.767Z,54.86
2023-03-10T09:47:59.476Z,53.86
2023-03-10T09:50:30.592Z,56.24
2023-03-10T09:53:15.825Z,56.42
2023-03-10T09:55:47.936Z,55.77
2023-03-10T09:58:21.494Z,55.28
2023-03-10T10:00:48.182Z,55.89
2023-03-10T10:03:21.045Z,55.35
2023-03-10T10:05:48.979Z,55.76
2023-03-10T10:08:23.138Z,56.76
2023-03-10T10:10:53.359Z,56.96
2023-03-10T10:13:23.185Z,57.97
2023-03-10T10:16:07.303Z,58.64
2023-03-10T10:18:47.126Z,60.78
2023-03-10T10:21:17.068Z,60.09
2023-03-10T10:23:50.970Z,60.50
2023-03-10T10:26:19.228Z,61.63
2023-03-10T10:28:57.966Z,60.35
2023-03-10T10:31:29.281Z,60.06
2023-03-10T10:34:00.595Z,61.20
2023-03-10T10:36:29.401Z,61.70
2023-03-10T10:38:56.926Z,61.84
2023-03-10T10:41:31.640Z,62.20
2023-03-10T10:44:09.546Z,61.95
2023-03-10T10:46:36.336Z,62.22
2023-03-10T10:49:04.962Z,61.97
2023-03-10T10:51:32.670Z,60.22
2023-03-10T10:54:00.513Z,61.32
2023-03-10T10:56:28.832Z,60.79
2023-03-10T10:59:04.641Z,60.50
2023-03-10T11:01:50.011Z,59.25
2023-03-10T11:04:17.654Z,59.73
2023-03-10T11:06:44.842Z,57.58
2023-03-10T11:09:12.455Z,56.31
2023-03-10T11:11:45.878Z,56.26
2023-03-10T11:14:12.466Z,54.07
2023-03-10T11:16:42.190Z,54.10
2023-03-10T11:19:23.892Z,54.97
2023-03-10T11:21:52.312Z,56.15
2023-03-10T11:24:26.629Z,56.69
2023-03-10T11:27:02.456Z,54.73
2023-03-10T11:29:31.931Z,53.27
2023-03-10T11:32:01.606Z,53.72
2023-03-10T11:34:31.152Z,51.71
2023-03-10T11:37:15.829Z,52.30
2023-03-10T11:40:07.909Z,51.51
2023-03-10T11:42:39.375Z,52.80
2023-03-10T11:45:27.824Z,53.30
2023-03-10T11:47:57.557Z,53.13
2023-03-10T11:50:38.140Z,52.52
2023-03-10T11:53:17.640Z,52.17
2023-03-10T11:55:44.843Z,54.22
2023-03-10T11:58:34.821Z,53.88
2023-03-10T12:01:02.181Z,52.80
2023-03-10T12:03:48.691Z,50.67
2023-03-10T12:06:18.287Z,52.86
2023-03-10T12:08:45.226Z,53.03
2023-03-10T12:11:15.536Z,54.90
2023-03-10T12:13:46.769Z,54.94
2023-03-10T12:16:19.783Z,54.97
2023-03-10T12:18:46.689Z,55.06
2023-03-10T12:21:19.250Z,58.71
2023-03-10T12:23:50.824Z,59.70
2023-03-10T12:26:37.403Z,62.78
2023-03-10T12:29:36.317Z,70.19
2023-03-10T12:32:03.784Z,71.72
2023-03-10T12:34:32.521Z,71.45
2023-03-10T12:37:09.951Z,70.35
2023-03-10T12:39:41.117Z,69.08
2023-03-10T12:42:26.990Z,65.67
2023-03-10T12:44:56.362Z,64.61
2023-03-10T12:47:28.900Z,64.11
2023-03-10T12:49:55.919Z,61.72
2023-03-10T12:52:27.045Z,62.11
2023-03-10T12:55:15.957Z,62.76
2023-03-10T12:58:01.482Z,61.43
2023-03-10T13:00:40.404Z,61.15
2023-03-10T13:03:10.077Z,62.14
2023-03-10T13:05:55.442Z,60.69
2023-03-10T13:08:24.625Z,61.61
2023-03-10T13:10:52.505Z,64.47
2023-03-10T13:13:19.135Z,68.11
2023-03-10T13:15:57.422Z,70.44
2023-03-10T13:18:24.110Z,75.25
2023-03-10T13:20:50.781Z,81.89
2023-03-10T13:23:25.043Z,86.05
2023-03-10T13:25:59.316Z,90.30
2023-03-10T13:28:27.108Z,90.40
2023-03-10T13:31:07.523Z,90.52
2023-03-10T13:33:40.292Z,88.39
2023-03-10T13:36:22.300Z,89.46
2023-03-10T13:38:50.177Z,89.51
2023-03-10T13:41:16.878Z,90.54
2023-03-10T13:43:44.126Z,92.16
2023-03-10T13:46:18.772Z,93.03
2023-03-10T13:48:47.148Z,92.76
2023-03-10T13:51:19.563Z,95.15
2023-03-10T13:53:47.244Z,97.24
2023-03-10T13:56:22.014Z,100.00
2023-03-10T13:58:49.921Z,100.00
2023-03-10T14:01:34.422Z,100.00
2023-03-10T14:04:07.030Z,100.00
2023-03-10T14:06:33.781Z,100.00
2023-03-10T14:09:19.455Z,100.00
2023-03-10T14:11:48.071Z,100.00
2023-03-10T14:14:27.528Z,100.00
2023-03-10T14:16:56.322Z,100.00
2023-03-10T14:19:41.347Z,100.00
2023-03-10T14:22:41.654Z,100.00
2023-03-10T14:25:13.413Z,100.00
2023-03-10T14:27:42.336Z,100.00
2023-03-10T14:30:18.305Z,100.00
2023-03-10T14:32:45.402Z,100.00
2023-03-10T14:35:13.506Z,100.00
2023-03-10T14:37:40.192Z,100.00
2023-03-10T14:40:07.987Z,100.00
2023-03-10T14:42:34.920Z,100.00
2023-03-10T14:45:09.251Z,100.00
2023-03-10T14:47:36.113Z,100.00
2023-03-10T14:50:03.253Z,100.00
2023-03-10T14:52:29.945Z,100.00
2023-03-10T14:54:56.599Z,100.00
2023-03-10T14:57:23.496Z,100.00
2023-03-10T14:59:50.287Z,100.00
2023-03-10T15:02:22.083Z,100.00
2023-03-10T15:04:48.960Z,100.00
2023-03-10T15:07:15.852Z,100.00
2023-03-10T15:09:42.577Z,100.00
2023-03-10T15:12:09.602Z,100.00
2023-03-10T15:14:36.466Z,100.00
2023-03-10T15:17:04.530Z,100.00
2023-03-10T15:19:31.357Z,100.00
2023-03-10T15:21:58.095Z,100.00
2023-03-10T15:24:24.821Z,100.00
2023-03-10T15:26:51.433Z,100.00
2023-03-10T15:29:20.055Z,100.00
2023-03-10T15:31:46.929Z,100.00
2023-03-10T15:34:13.814Z,100.00
2023-03-10T15:36:41.159Z,100.00
2023-03-10T15:39:07.909Z,100.00
2023-03-10T15:41:35.812Z,100.00
2023-03-10T15:44:02.577Z,100.00
2023-03-10T15:46:29.457Z,100.00
2023-03-10T15:48:57.324Z,100.00
2023-03-10T15:51:24.336Z,100.00
2023-03-10T15:53:50.945Z,100.00
2023-03-10T15:56:17.603Z,100.00
2023-03-10T15:58:44.884Z,100.00
2023-03-10T16:01:13.690Z,100.00
2023-03-10T16:03:40.310Z,100.00
2023-03-10T16:06:09.647Z,100.00
2023-03-10T16:08:38.917Z,100.00
2023-03-10T16:11:15.403Z,100.00
2023-03-10T16:13:42.090Z,100.00
2023-03-10T16:16:09.284Z,100.00
2023-03-10T16:18:36.007Z,100.00
2023-03-10T16:21:03.972Z,100.00
2023-03-10T16:23:31.593Z,100.00
2023-03-10T16:26:04.875Z,100.00
2023-03-10T16:28:31.650Z,100.00
2023-03-10T16:30:58.495Z,100.00
2023-03-10T16:33:25.341Z,100.00
2023-03-10T16:35:52.366Z,100.00
2023-03-10T16:38:19.113Z,100.00
2023-03-10T16:40:52.170Z,100.00
2023-03-10T16:43:19.798Z,100.00
2023-03-10T16:45:49.127Z,100.00
2023-03-10T16:48:16.214Z,100.00
2023-03-10T16:50:43.222Z,100.00
2023-03-10T16:53:09.986Z,100.00
2023-03-10T16:55:37.146Z,100.00
2023-03-10T16:58:04.139Z,100.00
2023-03-10T17:00:31.184Z,100.00
2023-03-10T17:02:58.406Z,100.00
2023-03-10T17:05:25.326Z,100.00
2023-03-10T17:07:56.040Z,100.00
2023-03-10T17:10:23.409Z,100.00
2023-03-10T17:12:50.138Z,100.00
2023-03-10T17:15:16.777Z,100.00
2023-03-10T17:17:43.813Z,100.00
2023-03-10T17:20:11.180Z,100.00
2023-03-10T17:22:38.858Z,100.00
2023-03-10T17:25:05.848Z,100.00
2023-03-10T17:27:32.738Z,100.00
2023-03-10T17:29:59.762Z,100.00
2023-03-10T17:32:27.906Z,100.00
2023-03-10T17:34:55.037Z,100.00
2023-03-10T17:37:21.980Z,100.00
2023-03-10T17:39:48.761Z,100.00
2023-03-10T17:42:16.623Z,100.00
2023-03-10T17:44:44.357Z,100.00
2023-03-10T17:47:12.430Z,100.00
2023-03-10T17:49:41.130Z,100.00
2023-03-10T17:52:08.479Z,100.00
2023-03-10T17:54:37.165Z,100.00
2023-03-10T17:57:04.458Z,100.00
2023-03-10T17:59:33.463Z,100.00
2023-03-10T18:02:04.122Z,100.00
2023-03-10T18:04:31.949Z,100.00
2023-03-10T18:06:58.969Z,100.00
2023-03-10T18:09:25.840Z,100.00
2023-03-10T18:11:57.734Z,100.00
2023-03-10T18:14:25.233Z,100.00
2023-03-10T18:16:52.250Z,100.00
2023-03-10T18:19:21.481Z,100.00
2023-03-10T18:21:49.376Z,100.00
2023-03-10T18:24:16.912Z,100.00
2023-03-10T18:26:43.727Z,100.00
2023-03-10T18:29:11.345Z,100.00
2023-03-10T18:31:38.974Z,100.00
2023-03-10T18:34:06.572Z,100.00
2023-03-10T18:36:33.815Z,100.00
2023-03-10T18:39:04.297Z,100.00
2023-03-10T18:41:32.998Z,100.00
2023-03-10T18:44:01.308Z,100.00
2023-03-10T18:46:28.432Z,100.00
2023-03-10T18:48:58.936Z,100.00
2023-03-10T18:51:27.842Z,100.00
2023-03-10T18:53:55.752Z,100.00
2023-03-10T18:56:25.970Z,100.00
2023-03-10T18:58:53.669Z,100.00
2023-03-10T19:01:22.486Z,100.00
2023-03-10T19:03:49.976Z,100.00
2023-03-10T19:06:16.991Z,100.00
2023-03-10T19:08:45.594Z,100.00
2023-03-10T19:11:13.634Z,100.00
2023-03-10T19:13:44.275Z,100.00
2023-03-10T19:16:12.786Z,100.00
2023-03-10T19:18:41.621Z,100.00
2023-03-10T19:21:10.311Z,100.00
2023-03-10T19:23:39.063Z,100.00
2023-03-10T19:26:07.712Z,100.00
2023-03-10T19:28:35.754Z,100.00
2023-03-10T19:31:08.395Z,100.00
2023-03-10T19:33:35.876Z,100.00
2023-03-10T19:36:04.309Z,100.00
2023-03-10T19:38:31.543Z,100.00
2023-03-10T19:40:58.951Z,100.00
2023-03-10T19:43:26.559Z,100.00
2023-03-10T19:45:59.927Z,100.00
2023-03-10T19:48:27.441Z,100.00
2023-03-10T19:50:55.710Z,100.00
2023-03-10T19:53:23.600Z,100.00
2023-03-10T19:55:54.526Z,100.00
2023-03-10T19:58:22.308Z,100.00
2023-03-10T20:00:50.880Z,100.00
2023-03-10T20:03:19.292Z,100.00
2023-03-10T20:05:48.078Z,100.00
2023-03-10T20:08:15.984Z,100.00
2023-03-10T20:10:43.665Z,100.00
2023-03-10T20:13:11.324Z,100.00
2023-03-10T20:15:39.108Z,100.00
2023-03-10T20:18:06.951Z,100.00
2023-03-10T20:20:34.396Z,100.00
2023-03-10T20:23:01.588Z,100.00
2023-03-10T20:25:28.726Z,100.00
2023-03-10T20:27:57.787Z,100.00
2023-03-10T20:30:29.075Z,100.00
2023-03-10T20:32:56.890Z,100.00
2023-03-10T20:35:25.862Z,100.00
2023-03-10T20:37:53.113Z,100.00
2023-03-10T20:40:23.578Z,100.00
2023-03-10T20:42:57.049Z,100.00
2023-03-10T20:45:24.555Z,100.00
2023-03-10T20:47:53.912Z,100.00
2023-03-10T20:50:21.214Z,100.00
2023-03-10T20:52:49.210Z,100.00
2023-03-10T20:55:36.541Z,100.00
2023-03-10T20:58:04.156Z,100.00
2023-03-10T21:00:31.483Z,100.00
2023-03-10T21:02:58.967Z,100.00
2023-03-10T21:05:27.051Z,100.00
2023-03-10T21:07:54.317Z,100.00
2023-03-10T21:10:21.580Z,100.00
2023-03-10T21:12:49.035Z,100.00
2023-03-10T21:15:17.155Z,100.00
2023-03-10T21:17:44.139Z,100.00
2023-03-10T21:20:12.328Z,100.00
2023-03-10T21:22:40.298Z,100.00
2023-03-10T21:25:09.149Z,100.00
2023-03-10T21:27:38.673Z,100.00
2023-03-10T21:30:09.956Z,100.00
2023-03-10T21:32:37.331Z,100.00
2023-03-10T21:35:05.844Z,100.00
2023-03-10T21:37:32.615Z,100.00
2023-03-10T21:39:59.433Z,100.00
2023-03-10T21:42:26.221Z,100.00
2023-03-10T21:44:55.297Z,100.00
2023-03-10T21:47:21.960Z,100.00
2023-03-10T21:49:48.610Z,100.00
2023-03-10T21:52:15.621Z,100.00
2023-03-10T21:54:43.305Z,100.00
2023-03-10T21:57:09.957Z,100.00
2023-03-10T21:59:36.793Z,100.00
2023-03-10T22:02:03.686Z,100.00
2023-03-10T22:04:30.731Z,100.00
2023-03-10T22:06:57.463Z,100.00
2023-03-10T22:09:24.185Z,100.00
2023-03-10T22:11:51.039Z,100.00
2023-03-10T22:14:17.944Z,100.00
2023-03-10T22:16:44.579Z,100.00
2023-03-10T22:19:11.462Z,100.00
2023-03-10T22:21:38.147Z,100.00
2023-03-10T22:24:04.946Z,100.00
2023-03-10T22:26:31.613Z,100.00
2023-03-10T22:29:00.455Z,100.00
2023-03-10T22:31:27.089Z,100.00
2023-03-10T22:33:53.811Z,100.00
2023-03-10T22:36:20.423Z,100.00
2023-03-10T22:38:47.061Z,100.00
2023-03-10T22:41:13.703Z,100.00
2023-03-10T22:43:40.317Z,100.00
2023-03-10T22:46:08.046Z,100.00
2023-03-10T22:48:34.696Z,100.00
2023-03-10T22:51:01.361Z,100.00
2023-03-10T22:53:28.363Z,100.00
2023-03-10T22:55:55.038Z,100.00
2023-03-10T22:58:21.625Z,100.00
2023-03-10T23:00:48.537Z,100.00
2023-03-10T23:03:15.554Z,100.00
2023-03-10T23:05:42.490Z,100.00
2023-03-10T23:08:09.061Z,100.00
2023-03-10T23:10:36.152Z,100.00
2023-03-10T23:13:04.130Z,100.00
2023-03-10T23:15:32.229Z,100.00
2023-03-10T23:17:59.113Z,100.00
2023-03-10T23:20:27.727Z,100.00
2023-03-10T23:22:55.408Z,100.00
2023-03-10T23:25:24.981Z,100.00
2023-03-10T23:27:51.590Z,100.00
2023-03-10T23:30:18.256Z,100.00
2023-03-10T23:32:46.115Z,100.00
2023-03-10T23:35:13.986Z,100.00
2023-03-10T23:37:40.700Z,100.00
2023-03-10T23:40:10.774Z,100.00
2023-03-10T23:42:37.977Z,100.00
2023-03-10T23:45:05.968Z,100.00
2023-03-10T23:47:33.083Z,100.00
2023-03-10T23:49:59.715Z,100.00
2023-03-10T23:52:26.846Z,100.00
2023-03-10T23:54:53.975Z,100.00
2023-03-10T23:57:20.594Z,100.00
2023-03-10T23:59:47.275Z,100.00
